createdAt,value
2016-11-25T00:00:30.793Z,0
2016-11-25T00:01:30.775Z,0
2016-11-25T00:02:30.800Z,0
2016-11-25T00:03:31.058Z,0
2016-11-25T00:04:30.733Z,0
2016-11-25T00:05:30.724Z,0
2016-11-25T00:06:30.716Z,0
2016-11-25T00:07:30.691Z,0
2016-11-25T00:08:30.679Z,0
2016-11-25T00:09:30.660Z,0
2016-11-25T00:10:30.642Z,0
2016-11-25T00:11:30.938Z,0
2016-11-25T00:12:30.622Z,0
2016-11-25T00:13:30.602Z,0
2016-11-25T00:14:30.593Z,0
2016-11-25T00:15:30.877Z,0
2016-11-25T00:16:30.563Z,0
2016-11-25T00:17:30.547Z,0
2016-11-25T00:18:30.544Z,0
2016-11-25T00:19:30.523Z,0
2016-11-25T00:20:30.509Z,0
2016-11-25T00:21:30.495Z,0
2016-11-25T00:22:30.481Z,0
2016-11-25T00:23:30.501Z,0
2016-11-25T00:24:30.444Z,0
2016-11-25T00:25:30.441Z,0
2016-11-25T00:26:30.415Z,0
2016-11-25T00:27:30.402Z,0
2016-11-25T00:28:30.400Z,0
2016-11-25T00:29:30.379Z,0
2016-11-25T00:30:30.366Z,0
2016-11-25T00:31:30.353Z,0
2016-11-25T00:32:30.336Z,0
2016-11-25T00:33:30.324Z,0
2016-11-25T00:34:30.305Z,0
2016-11-25T00:35:30.290Z,0
2016-11-25T00:36:30.274Z,0
2016-11-25T00:37:30.269Z,0
2016-11-25T00:38:30.259Z,0
2016-11-25T00:39:30.242Z,0
2016-11-25T00:40:30.225Z,0
2016-11-25T00:41:30.211Z,0
2016-11-25T00:42:30.528Z,0
2016-11-25T00:43:30.216Z,0
2016-11-25T00:44:30.199Z,0
2016-11-25T00:45:30.154Z,0
2016-11-25T00:46:30.450Z,0
2016-11-25T00:47:30.165Z,0
2016-11-25T00:48:30.106Z,0
2016-11-25T00:49:30.131Z,0
2016-11-25T00:50:30.081Z,0
2016-11-25T00:51:30.089Z,0
2016-11-25T00:52:30.055Z,0
2016-11-25T00:53:30.034Z,0
2016-11-25T00:54:30.030Z,0
2016-11-25T00:55:30.012Z,0
2016-11-25T00:56:30.002Z,0
2016-11-25T00:57:29.982Z,0
2016-11-25T00:58:29.975Z,0
2016-11-25T00:59:29.951Z,0
2016-11-25T01:00:29.938Z,0
2016-11-25T01:01:29.933Z,0
2016-11-25T01:02:29.915Z,0
2016-11-25T01:03:29.911Z,0
2016-11-25T01:04:29.892Z,0
2016-11-25T01:05:29.911Z,0
2016-11-25T01:06:29.868Z,0
2016-11-25T01:07:30.156Z,0
2016-11-25T01:08:29.827Z,0
2016-11-25T01:09:29.820Z,0
2016-11-25T01:10:29.805Z,0
2016-11-25T01:11:29.822Z,0
2016-11-25T01:12:29.780Z,0
2016-11-25T01:13:30.066Z,0
2016-11-25T01:14:29.784Z,0
2016-11-25T01:15:29.750Z,0
2016-11-25T01:16:29.728Z,0
2016-11-25T01:17:29.714Z,0
2016-11-25T01:18:29.692Z,0
2016-11-25T01:19:29.688Z,0
2016-11-25T01:20:29.674Z,0
2016-11-25T01:21:29.646Z,0
2016-11-25T01:22:29.648Z,0
2016-11-25T01:23:29.634Z,0
2016-11-25T01:24:29.613Z,0
2016-11-25T01:25:29.600Z,0
2016-11-25T01:26:29.581Z,0
2016-11-25T01:27:29.579Z,0
2016-11-25T01:28:29.558Z,0
2016-11-25T01:29:29.540Z,0
2016-11-25T01:30:29.527Z,0
2016-11-25T01:31:29.514Z,0
2016-11-25T01:32:29.500Z,0
2016-11-25T01:33:29.485Z,0
2016-11-25T01:34:29.469Z,0
2016-11-25T01:35:29.453Z,0
2016-11-25T01:36:29.441Z,0
2016-11-25T01:37:29.435Z,0
2016-11-25T01:38:29.413Z,0
2016-11-25T01:39:29.714Z,0
2016-11-25T01:40:29.387Z,0
2016-11-25T01:41:29.382Z,0
2016-11-25T01:42:29.687Z,0
2016-11-25T01:43:29.358Z,0
2016-11-25T01:44:29.331Z,0
2016-11-25T01:45:29.318Z,0
2016-11-25T01:46:29.307Z,0
2016-11-25T01:47:29.599Z,0
2016-11-25T01:48:29.281Z,0
2016-11-25T01:49:29.293Z,0
2016-11-25T01:50:29.250Z,0
2016-11-25T01:51:29.263Z,0
2016-11-25T01:52:29.223Z,0
2016-11-25T01:53:29.216Z,0
2016-11-25T01:54:29.203Z,0
2016-11-25T01:55:29.183Z,0
2016-11-25T01:56:29.168Z,0
2016-11-25T01:57:29.153Z,0
2016-11-25T01:58:29.440Z,0
2016-11-25T01:59:29.128Z,0
2016-11-25T02:00:29.115Z,0
2016-11-25T02:01:29.102Z,0
2016-11-25T02:02:29.092Z,0
2016-11-25T02:03:29.074Z,0
2016-11-25T02:04:29.064Z,0
2016-11-25T02:05:29.072Z,0
2016-11-25T02:06:29.032Z,0
2016-11-25T02:07:29.022Z,0
2016-11-25T02:08:29.002Z,0
2016-11-25T02:09:28.992Z,0
2016-11-25T02:10:28.977Z,0
2016-11-25T02:11:28.982Z,0
2016-11-25T02:12:28.945Z,0
2016-11-25T02:13:28.962Z,0
2016-11-25T02:14:28.923Z,0
2016-11-25T02:15:28.909Z,0
2016-11-25T02:16:28.897Z,0
2016-11-25T02:17:28.883Z,0
2016-11-25T02:18:28.871Z,0
2016-11-25T02:19:28.859Z,0
2016-11-25T02:20:28.844Z,0
2016-11-25T02:21:28.827Z,0
2016-11-25T02:22:28.813Z,0
2016-11-25T02:23:28.798Z,0
2016-11-25T02:24:28.790Z,0
2016-11-25T02:25:28.788Z,0
2016-11-25T02:26:28.755Z,0
2016-11-25T02:27:28.748Z,0
2016-11-25T02:28:28.731Z,0
2016-11-25T02:29:28.717Z,0
2016-11-25T02:30:28.700Z,0
2016-11-25T02:31:28.689Z,0
2016-11-25T02:32:28.969Z,0
2016-11-25T02:33:28.660Z,0
2016-11-25T02:34:28.645Z,0
2016-11-25T02:35:28.636Z,0
2016-11-25T02:36:28.644Z,0
2016-11-25T02:37:28.606Z,0
2016-11-25T02:38:28.596Z,0
2016-11-25T02:39:28.578Z,0
2016-11-25T02:40:28.860Z,0
2016-11-25T02:41:28.558Z,0
2016-11-25T02:42:28.538Z,0
2016-11-25T02:43:28.528Z,0
2016-11-25T02:44:28.508Z,0
2016-11-25T02:45:28.497Z,0
2016-11-25T02:46:28.484Z,0
2016-11-25T02:47:28.469Z,0
2016-11-25T02:48:28.447Z,0
2016-11-25T02:49:28.470Z,0
2016-11-25T02:50:28.428Z,0
2016-11-25T02:51:28.409Z,0
2016-11-25T02:52:28.698Z,0
2016-11-25T02:53:28.385Z,0
2016-11-25T02:54:28.373Z,0
2016-11-25T02:55:28.354Z,0
2016-11-25T02:56:28.341Z,0
2016-11-25T02:57:28.330Z,0
2016-11-25T02:58:28.313Z,0
2016-11-25T02:59:28.296Z,0
2016-11-25T03:00:28.294Z,0
2016-11-25T03:01:28.274Z,0
2016-11-25T03:02:28.263Z,0
2016-11-25T03:03:28.266Z,0
2016-11-25T03:04:28.233Z,0
2016-11-25T03:05:28.221Z,0
2016-11-25T03:06:28.199Z,0
2016-11-25T03:07:28.197Z,0
2016-11-25T03:08:28.185Z,0
2016-11-25T03:09:28.173Z,0
2016-11-25T03:10:28.151Z,0
2016-11-25T03:11:28.172Z,0
2016-11-25T03:12:28.122Z,0
2016-11-25T03:13:28.111Z,0
2016-11-25T03:14:28.100Z,0
2016-11-25T03:15:28.119Z,0
2016-11-25T03:16:28.066Z,0
2016-11-25T03:17:28.057Z,0
2016-11-25T03:18:28.042Z,0
2016-11-25T03:19:28.035Z,0
2016-11-25T03:20:28.018Z,0
2016-11-25T03:21:28.000Z,0
2016-11-25T03:22:27.986Z,0
2016-11-25T03:23:27.973Z,0
2016-11-25T03:24:27.965Z,0
2016-11-25T03:25:27.960Z,0
2016-11-25T03:26:27.933Z,0
2016-11-25T03:27:27.927Z,0
2016-11-25T03:28:27.914Z,0
2016-11-25T03:29:27.893Z,0
2016-11-25T03:30:27.888Z,0
2016-11-25T03:31:27.868Z,0
2016-11-25T03:32:27.859Z,0
2016-11-25T03:33:27.834Z,0
2016-11-25T03:34:27.826Z,0
2016-11-25T03:35:27.813Z,0
2016-11-25T03:36:27.824Z,0
2016-11-25T03:37:27.789Z,0
2016-11-25T03:38:27.770Z,0
2016-11-25T03:39:27.759Z,0
2016-11-25T03:40:27.738Z,0
2016-11-25T03:41:27.723Z,0
2016-11-25T03:42:27.743Z,0
2016-11-25T03:43:27.701Z,0
2016-11-25T03:44:27.695Z,0
2016-11-25T03:45:27.668Z,0
2016-11-25T03:46:27.663Z,0
2016-11-25T03:47:27.652Z,0
2016-11-25T03:48:27.641Z,0
2016-11-25T03:49:27.623Z,0
2016-11-25T03:50:27.611Z,0
2016-11-25T03:51:27.627Z,0
2016-11-25T03:52:27.579Z,0
2016-11-25T03:53:27.562Z,0
2016-11-25T03:54:27.554Z,0
2016-11-25T03:55:27.536Z,0
2016-11-25T03:56:27.529Z,0
2016-11-25T03:57:27.519Z,0
2016-11-25T03:58:27.491Z,0
2016-11-25T03:59:27.479Z,0
2016-11-25T04:00:27.462Z,0
2016-11-25T04:01:27.458Z,0
2016-11-25T04:02:27.445Z,0
2016-11-25T04:03:27.422Z,0
2016-11-25T04:04:27.414Z,0
2016-11-25T04:05:27.402Z,0
2016-11-25T04:06:27.388Z,0
2016-11-25T04:07:27.372Z,0
2016-11-25T04:08:27.358Z,0
2016-11-25T04:09:27.334Z,0
2016-11-25T04:10:27.341Z,0
2016-11-25T04:11:27.314Z,0
2016-11-25T04:12:27.297Z,0
2016-11-25T04:13:27.286Z,0
2016-11-25T04:14:27.303Z,0
2016-11-25T04:15:27.254Z,0
2016-11-25T04:16:27.254Z,0
2016-11-25T04:17:27.232Z,0
2016-11-25T04:18:27.214Z,0
2016-11-25T04:19:27.208Z,0
2016-11-25T04:20:27.188Z,0
2016-11-25T04:21:27.209Z,0
2016-11-25T04:22:27.159Z,0
2016-11-25T04:23:27.158Z,0
2016-11-25T04:24:27.140Z,0
2016-11-25T04:25:27.117Z,0
2016-11-25T04:26:27.108Z,0
2016-11-25T04:27:27.103Z,0
2016-11-25T04:28:27.076Z,0
2016-11-25T04:29:27.072Z,0
2016-11-25T04:30:27.046Z,0
2016-11-25T04:31:27.041Z,0
2016-11-25T04:32:27.022Z,0
2016-11-25T04:33:27.009Z,0
2016-11-25T04:34:26.998Z,0
2016-11-25T04:35:26.977Z,0
2016-11-25T04:36:27.275Z,0
2016-11-25T04:37:26.953Z,0
2016-11-25T04:38:26.943Z,0
2016-11-25T04:39:26.924Z,0
2016-11-25T04:40:26.911Z,0
2016-11-25T04:41:26.903Z,0
2016-11-25T04:42:26.893Z,0
2016-11-25T04:43:26.906Z,0
2016-11-25T04:44:26.861Z,0
2016-11-25T04:45:26.853Z,0
2016-11-25T04:46:26.834Z,0
2016-11-25T04:47:26.814Z,0
2016-11-25T04:48:26.808Z,0
2016-11-25T04:49:26.789Z,0
2016-11-25T04:50:26.779Z,0
2016-11-25T04:51:26.766Z,0
2016-11-25T04:52:27.064Z,0
2016-11-25T04:53:26.727Z,0
2016-11-25T04:54:26.727Z,0
2016-11-25T04:55:26.703Z,0
2016-11-25T04:56:26.693Z,0
2016-11-25T04:57:26.686Z,0
2016-11-25T04:58:26.968Z,0
2016-11-25T04:59:26.646Z,0
2016-11-25T05:00:26.631Z,0
2016-11-25T05:01:26.624Z,0
2016-11-25T05:02:26.615Z,0
2016-11-25T05:03:26.894Z,0
2016-11-25T05:04:26.613Z,0
2016-11-25T05:05:26.569Z,0
2016-11-25T05:06:26.551Z,0
2016-11-25T05:07:26.535Z,0
2016-11-25T05:08:26.532Z,0
2016-11-25T05:09:26.518Z,0
2016-11-25T05:10:26.503Z,0
2016-11-25T05:11:26.483Z,0
2016-11-25T05:12:26.466Z,0
2016-11-25T05:13:26.458Z,0
2016-11-25T05:14:26.447Z,0
2016-11-25T05:15:26.433Z,0
2016-11-25T05:16:26.426Z,0
2016-11-25T05:17:26.409Z,0
2016-11-25T05:18:26.391Z,0
2016-11-25T05:19:26.371Z,0
2016-11-25T05:20:26.360Z,0
2016-11-25T05:21:26.342Z,0
2016-11-25T05:22:26.334Z,0
2016-11-25T05:23:26.324Z,0
2016-11-25T05:24:26.309Z,0
2016-11-25T05:25:26.291Z,0
2016-11-25T05:26:26.277Z,0
2016-11-25T05:27:26.265Z,0
2016-11-25T05:28:26.251Z,0
2016-11-25T05:29:26.240Z,0
2016-11-25T05:30:26.224Z,0
2016-11-25T05:31:26.214Z,0
2016-11-25T05:32:26.193Z,0
2016-11-25T05:33:26.175Z,0
2016-11-25T05:34:26.174Z,0
2016-11-25T05:35:26.158Z,0
2016-11-25T05:36:26.134Z,0
2016-11-25T05:37:26.124Z,0
2016-11-25T05:38:26.113Z,0
2016-11-25T05:39:26.100Z,0
2016-11-25T05:40:26.092Z,0
2016-11-25T05:41:26.069Z,0
2016-11-25T05:42:26.055Z,0
2016-11-25T05:43:26.073Z,0
2016-11-25T05:44:26.040Z,0
2016-11-25T05:45:26.020Z,0
2016-11-25T05:46:26.011Z,0
2016-11-25T05:47:25.990Z,0
2016-11-25T05:48:25.972Z,0
2016-11-25T05:49:25.965Z,0
2016-11-25T05:50:25.986Z,0
2016-11-25T05:51:25.939Z,0
2016-11-25T05:52:25.924Z,0
2016-11-25T05:53:25.912Z,0
2016-11-25T05:54:25.897Z,0
2016-11-25T05:55:25.881Z,0
2016-11-25T05:56:26.179Z,0
2016-11-25T05:57:26.165Z,0
2016-11-25T05:58:25.863Z,0
2016-11-25T05:59:25.828Z,0
2016-11-25T06:00:25.810Z,0
2016-11-25T06:01:25.798Z,0
2016-11-25T06:02:25.781Z,0
2016-11-25T06:03:25.777Z,0
2016-11-25T06:04:25.760Z,0
2016-11-25T06:05:25.752Z,0
2016-11-25T06:06:25.729Z,0
2016-11-25T06:07:25.723Z,0
2016-11-25T06:08:25.697Z,0
2016-11-25T06:09:25.691Z,0
2016-11-25T06:10:25.718Z,0
2016-11-25T06:11:25.656Z,0
2016-11-25T06:12:25.645Z,0
2016-11-25T06:13:25.629Z,0
2016-11-25T06:14:25.621Z,0
2016-11-25T06:15:25.606Z,0
2016-11-25T06:16:25.599Z,0
2016-11-25T06:17:25.581Z,0
2016-11-25T06:18:25.575Z,0
2016-11-25T06:19:25.561Z,0
2016-11-25T06:20:25.540Z,0
2016-11-25T06:21:25.526Z,0
2016-11-25T06:22:25.519Z,0
2016-11-25T06:23:25.497Z,0
2016-11-25T06:24:25.480Z,0
2016-11-25T06:25:25.471Z,0
2016-11-25T06:26:25.453Z,0
2016-11-25T06:27:25.446Z,0
2016-11-25T06:28:25.436Z,0
2016-11-25T06:29:25.413Z,0
2016-11-25T06:30:25.395Z,0
2016-11-25T06:31:25.378Z,0
2016-11-25T06:32:25.369Z,0
2016-11-25T06:33:25.357Z,0
2016-11-25T06:34:25.348Z,0
2016-11-25T06:35:25.325Z,0
2016-11-25T06:36:25.311Z,5
2016-11-25T06:37:25.601Z,5
2016-11-25T06:38:25.285Z,5
2016-11-25T06:39:25.274Z,5
2016-11-25T06:40:25.259Z,5
2016-11-25T06:41:25.243Z,5
2016-11-25T06:42:25.236Z,5
2016-11-25T06:43:25.244Z,5
2016-11-25T06:44:25.204Z,5
2016-11-25T06:45:25.182Z,5
2016-11-25T06:46:25.171Z,10
2016-11-25T06:47:25.157Z,10
2016-11-25T06:48:25.182Z,10
2016-11-25T06:49:25.133Z,10
2016-11-25T06:50:25.116Z,10
2016-11-25T06:51:25.108Z,15
2016-11-25T06:52:25.103Z,15
2016-11-25T06:53:25.083Z,15
2016-11-25T06:54:25.065Z,15
2016-11-25T06:55:25.054Z,15
2016-11-25T06:56:25.037Z,20
2016-11-25T06:57:25.022Z,20
2016-11-25T06:58:25.011Z,20
2016-11-25T06:59:24.993Z,20
2016-11-25T07:00:24.976Z,20
2016-11-25T07:01:24.971Z,20
2016-11-25T07:02:24.951Z,25
2016-11-25T07:03:24.944Z,25
2016-11-25T07:04:24.928Z,25
2016-11-25T07:05:24.912Z,25
2016-11-25T07:06:24.893Z,25
2016-11-25T07:07:24.884Z,30
2016-11-25T07:08:24.865Z,30
2016-11-25T07:09:24.854Z,30
2016-11-25T07:10:24.847Z,30
2016-11-25T07:11:24.822Z,35
2016-11-25T07:12:24.820Z,35
2016-11-25T07:13:24.789Z,40
2016-11-25T07:14:25.114Z,40
2016-11-25T07:15:24.772Z,40
2016-11-25T07:16:24.761Z,40
2016-11-25T07:17:24.743Z,40
2016-11-25T07:18:24.729Z,45
2016-11-25T07:19:24.712Z,45
2016-11-25T07:20:24.697Z,50
2016-11-25T07:21:24.680Z,50
2016-11-25T07:22:24.677Z,50
2016-11-25T07:23:24.655Z,50
2016-11-25T07:24:24.652Z,55
2016-11-25T07:25:24.623Z,55
2016-11-25T07:26:24.607Z,60
2016-11-25T07:27:24.599Z,60
2016-11-25T07:28:24.890Z,60
2016-11-25T07:29:24.569Z,55
2016-11-25T07:30:24.554Z,60
2016-11-25T07:31:24.542Z,60
2016-11-25T07:32:24.536Z,60
2016-11-25T07:33:24.516Z,60
2016-11-25T07:34:24.802Z,60
2016-11-25T07:35:24.492Z,60
2016-11-25T07:36:24.471Z,65
2016-11-25T07:37:24.459Z,65
2016-11-25T07:38:24.436Z,65
2016-11-25T07:39:24.431Z,65
2016-11-25T07:40:24.412Z,70
2016-11-25T07:41:24.392Z,75
2016-11-25T07:42:24.396Z,70
2016-11-25T07:43:24.369Z,75
2016-11-25T07:44:24.355Z,85
2016-11-25T07:45:24.344Z,80
2016-11-25T07:46:24.626Z,75
2016-11-25T07:47:24.315Z,70
2016-11-25T07:48:24.614Z,80
2016-11-25T07:49:24.286Z,85
2016-11-25T07:50:24.275Z,85
2016-11-25T07:51:24.255Z,80
2016-11-25T07:52:24.248Z,85
2016-11-25T07:53:24.229Z,85
2016-11-25T07:54:24.215Z,95
2016-11-25T07:55:24.513Z,95
2016-11-25T07:56:24.193Z,100
2016-11-25T07:57:24.481Z,105
2016-11-25T07:58:24.170Z,110
2016-11-25T07:59:24.154Z,105
2016-11-25T08:00:24.146Z,100
2016-11-25T08:01:24.155Z,100
2016-11-25T08:02:24.109Z,100
2016-11-25T08:03:24.097Z,105
2016-11-25T08:04:24.089Z,105
2016-11-25T08:05:24.073Z,95
2016-11-25T08:06:24.060Z,95
2016-11-25T08:07:24.043Z,85
2016-11-25T08:08:24.033Z,85
2016-11-25T08:09:24.019Z,85
2016-11-25T08:10:24.007Z,90
2016-11-25T08:11:23.994Z,90
2016-11-25T08:12:23.978Z,90
2016-11-25T08:13:23.977Z,95
2016-11-25T08:14:23.952Z,90
2016-11-25T08:15:23.945Z,100
2016-11-25T08:16:23.926Z,105
2016-11-25T08:17:23.918Z,105
2016-11-25T08:18:23.904Z,105
2016-11-25T08:19:23.898Z,110
2016-11-25T08:20:23.894Z,115
2016-11-25T08:21:24.164Z,115
2016-11-25T08:22:23.851Z,110
2016-11-25T08:23:23.838Z,100
2016-11-25T08:24:23.817Z,100
2016-11-25T08:25:23.812Z,110
2016-11-25T08:26:23.793Z,130
2016-11-25T08:27:23.791Z,130
2016-11-25T08:28:23.780Z,125
2016-11-25T08:29:23.757Z,120
2016-11-25T08:30:23.752Z,120
2016-11-25T08:31:23.757Z,115
2016-11-25T08:32:23.712Z,115
2016-11-25T08:33:24.013Z,115
2016-11-25T08:34:23.698Z,120
2016-11-25T08:35:23.994Z,120
2016-11-25T08:36:23.677Z,120
2016-11-25T08:37:23.661Z,120
2016-11-25T08:38:23.653Z,125
2016-11-25T08:39:23.632Z,125
2016-11-25T08:40:23.628Z,130
2016-11-25T08:41:23.612Z,135
2016-11-25T08:42:23.593Z,130
2016-11-25T08:43:23.593Z,130
2016-11-25T08:44:23.586Z,130
2016-11-25T08:45:23.565Z,135
2016-11-25T08:46:23.553Z,140
2016-11-25T08:47:23.576Z,135
2016-11-25T08:48:23.528Z,135
2016-11-25T08:49:23.515Z,130
2016-11-25T08:50:23.509Z,130
2016-11-25T08:51:23.498Z,135
2016-11-25T08:52:23.481Z,135
2016-11-25T08:53:23.471Z,135
2016-11-25T08:54:23.482Z,135
2016-11-25T08:55:26.655Z,140
2016-11-25T08:56:40.271Z,135
2016-11-25T08:57:23.425Z,135
2016-11-25T08:58:23.401Z,140
2016-11-25T08:59:23.395Z,140
2016-11-25T09:00:23.378Z,145
2016-11-25T09:01:23.677Z,145
2016-11-25T09:02:23.663Z,155
2016-11-25T09:03:23.348Z,155
2016-11-25T09:04:23.336Z,150
2016-11-25T09:05:23.350Z,150
2016-11-25T09:06:23.307Z,150
2016-11-25T09:07:23.302Z,155
2016-11-25T09:08:23.285Z,150
2016-11-25T09:09:23.277Z,145
2016-11-25T09:10:23.259Z,145
2016-11-25T09:11:23.258Z,150
2016-11-25T09:12:23.236Z,150
2016-11-25T09:13:23.232Z,145
2016-11-25T09:14:23.213Z,145
2016-11-25T09:15:23.199Z,160
2016-11-25T09:16:23.191Z,165
2016-11-25T09:17:23.216Z,170
2016-11-25T09:18:23.166Z,170
2016-11-25T09:19:23.167Z,175
2016-11-25T09:20:23.145Z,180
2016-11-25T09:21:23.144Z,180
2016-11-25T09:22:23.126Z,175
2016-11-25T09:23:23.103Z,170
2016-11-25T09:24:23.094Z,180
2016-11-25T09:25:23.101Z,185
2016-11-25T09:26:23.075Z,190
2016-11-25T09:27:23.066Z,205
2016-11-25T09:28:23.061Z,190
2016-11-25T09:29:23.377Z,195
2016-11-25T09:30:23.032Z,205
2016-11-25T09:31:23.019Z,185
2016-11-25T09:32:23.010Z,185
2016-11-25T09:33:23.000Z,200
2016-11-25T09:34:22.975Z,200
2016-11-25T09:35:22.965Z,210
2016-11-25T09:36:22.961Z,210
2016-11-25T09:37:22.952Z,200
2016-11-25T09:38:23.234Z,200
2016-11-25T09:39:22.931Z,200
2016-11-25T09:40:22.932Z,215
2016-11-25T09:41:22.899Z,225
2016-11-25T09:42:22.897Z,235
2016-11-25T09:43:22.883Z,245
2016-11-25T09:44:22.862Z,235
2016-11-25T09:45:22.848Z,225
2016-11-25T09:46:22.849Z,220
2016-11-25T09:47:22.835Z,235
2016-11-25T09:48:22.830Z,220
2016-11-25T09:49:22.812Z,210
2016-11-25T09:50:22.831Z,205
2016-11-25T09:51:22.786Z,215
2016-11-25T09:52:23.072Z,220
2016-11-25T09:53:22.764Z,230
2016-11-25T09:54:22.756Z,230
2016-11-25T09:55:22.783Z,225
2016-11-25T09:56:22.729Z,230
2016-11-25T09:57:22.734Z,220
2016-11-25T09:58:22.708Z,220
2016-11-25T09:59:22.698Z,220
2016-11-25T10:00:22.695Z,220
2016-11-25T10:01:22.672Z,210
2016-11-25T10:02:22.664Z,210
2016-11-25T10:03:22.657Z,200
2016-11-25T10:04:22.637Z,195
2016-11-25T10:05:22.637Z,200
2016-11-25T10:06:22.627Z,195
2016-11-25T10:07:22.615Z,180
2016-11-25T10:08:22.605Z,180
2016-11-25T10:09:22.592Z,185
2016-11-25T10:10:22.582Z,185
2016-11-25T10:11:22.873Z,185
2016-11-25T10:12:22.560Z,190
2016-11-25T10:13:22.546Z,185
2016-11-25T10:14:22.534Z,185
2016-11-25T10:15:22.528Z,190
2016-11-25T10:16:22.519Z,185
2016-11-25T10:17:22.808Z,190
2016-11-25T10:18:22.494Z,200
2016-11-25T10:19:22.484Z,205
2016-11-25T10:20:22.474Z,205
2016-11-25T10:21:22.461Z,200
2016-11-25T10:22:22.779Z,205
2016-11-25T10:23:22.437Z,210
2016-11-25T10:24:22.444Z,220
2016-11-25T10:25:22.415Z,220
2016-11-25T10:26:22.413Z,215
2016-11-25T10:27:22.396Z,200
2016-11-25T10:28:22.717Z,205
2016-11-25T10:29:22.398Z,210
2016-11-25T10:30:22.364Z,210
2016-11-25T10:31:22.358Z,215
2016-11-25T10:32:22.352Z,215
2016-11-25T10:33:22.333Z,215
2016-11-25T10:34:22.327Z,210
2016-11-25T10:35:22.317Z,215
2016-11-25T10:36:22.307Z,205
2016-11-25T10:37:22.300Z,205
2016-11-25T10:38:22.285Z,205
2016-11-25T10:39:22.278Z,195
2016-11-25T10:40:22.273Z,210
2016-11-25T10:41:22.254Z,230
2016-11-25T10:42:22.250Z,230
2016-11-25T10:43:22.233Z,230
2016-11-25T10:44:22.222Z,235
2016-11-25T10:45:22.211Z,235
2016-11-25T10:46:22.208Z,230
2016-11-25T10:47:22.188Z,230
2016-11-25T10:48:22.184Z,220
2016-11-25T10:49:22.173Z,210
2016-11-25T10:50:22.166Z,210
2016-11-25T10:51:22.153Z,220
2016-11-25T10:52:22.150Z,215
2016-11-25T10:53:22.132Z,210
2016-11-25T10:54:22.126Z,210
2016-11-25T10:55:22.111Z,215
2016-11-25T10:56:22.108Z,200
2016-11-25T10:57:22.095Z,205
2016-11-25T10:58:22.082Z,200
2016-11-25T10:59:22.069Z,200
2016-11-25T11:00:22.067Z,215
2016-11-25T11:01:22.052Z,210
2016-11-25T11:02:22.056Z,215
2016-11-25T11:03:22.029Z,225
2016-11-25T11:04:22.027Z,220
2016-11-25T11:05:22.012Z,225
2016-11-25T11:06:21.999Z,215
2016-11-25T11:07:22.004Z,210
2016-11-25T11:08:21.980Z,215
2016-11-25T11:09:21.976Z,215
2016-11-25T11:10:21.972Z,220
2016-11-25T11:11:22.256Z,220
2016-11-25T11:12:21.942Z,210
2016-11-25T11:13:21.933Z,210
2016-11-25T11:14:21.923Z,210
2016-11-25T11:15:21.928Z,225
2016-11-25T11:16:22.206Z,215
2016-11-25T11:17:21.897Z,205
2016-11-25T11:18:21.883Z,210
2016-11-25T11:19:21.882Z,210
2016-11-25T11:20:21.873Z,210
2016-11-25T11:21:21.863Z,205
2016-11-25T11:22:21.861Z,200
2016-11-25T11:23:21.843Z,200
2016-11-25T11:24:21.828Z,210
2016-11-25T11:25:21.826Z,215
2016-11-25T11:26:21.825Z,205
2016-11-25T11:27:21.801Z,210
2016-11-25T11:28:21.782Z,200
2016-11-25T11:29:21.775Z,215
2016-11-25T11:30:21.768Z,220
2016-11-25T11:31:21.763Z,215
2016-11-25T11:32:22.041Z,215
2016-11-25T11:33:21.742Z,215
2016-11-25T11:34:21.739Z,205
2016-11-25T11:35:21.725Z,195
2016-11-25T11:36:22.006Z,195
2016-11-25T11:37:21.705Z,205
2016-11-25T11:38:21.692Z,200
2016-11-25T11:39:21.679Z,195
2016-11-25T11:40:21.674Z,200
2016-11-25T11:41:21.665Z,190
2016-11-25T11:42:21.647Z,200
2016-11-25T11:43:21.646Z,195
2016-11-25T11:44:21.635Z,200
2016-11-25T11:45:21.619Z,190
2016-11-25T11:46:21.615Z,185
2016-11-25T11:47:21.643Z,190
2016-11-25T11:48:21.596Z,195
2016-11-25T11:49:21.590Z,200
2016-11-25T11:50:21.600Z,195
2016-11-25T11:51:21.572Z,195
2016-11-25T11:52:21.559Z,200
2016-11-25T11:53:21.546Z,195
2016-11-25T11:54:21.555Z,195
2016-11-25T11:55:21.521Z,190
2016-11-25T11:56:21.522Z,180
2016-11-25T11:57:21.507Z,180
2016-11-25T11:58:21.516Z,185
2016-11-25T11:59:21.490Z,190
2016-11-25T12:00:21.485Z,190
2016-11-25T12:01:21.468Z,195
2016-11-25T12:02:21.764Z,185
2016-11-25T12:03:21.451Z,190
2016-11-25T12:04:21.442Z,190
2016-11-25T12:05:21.457Z,185
2016-11-25T12:06:21.419Z,190
2016-11-25T12:07:21.408Z,190
2016-11-25T12:08:21.408Z,190
2016-11-25T12:09:21.389Z,185
2016-11-25T12:10:21.425Z,180
2016-11-25T12:11:21.372Z,180
2016-11-25T12:12:21.362Z,180
2016-11-25T12:13:21.356Z,175
2016-11-25T12:14:21.348Z,175
2016-11-25T12:15:21.336Z,170
2016-11-25T12:16:21.333Z,175
2016-11-25T12:17:21.619Z,175
2016-11-25T12:18:21.306Z,175
2016-11-25T12:19:21.293Z,175
2016-11-25T12:20:21.290Z,175
2016-11-25T12:21:21.284Z,160
2016-11-25T12:22:21.267Z,160
2016-11-25T12:23:21.263Z,160
2016-11-25T12:24:21.257Z,165
2016-11-25T12:25:21.239Z,165
2016-11-25T12:26:21.229Z,160
2016-11-25T12:27:21.223Z,145
2016-11-25T12:28:21.212Z,150
2016-11-25T12:29:21.202Z,160
2016-11-25T12:30:21.189Z,160
2016-11-25T12:31:21.187Z,160
2016-11-25T12:32:21.183Z,160
2016-11-25T12:33:21.164Z,155
2016-11-25T12:34:21.156Z,145
2016-11-25T12:35:21.148Z,135
2016-11-25T12:36:21.133Z,135
2016-11-25T12:37:21.228Z,135
2016-11-25T12:38:21.112Z,135
2016-11-25T12:39:21.108Z,140
2016-11-25T12:40:21.090Z,135
2016-11-25T12:41:21.091Z,135
2016-11-25T12:42:21.372Z,135
2016-11-25T12:43:21.072Z,135
2016-11-25T12:44:21.059Z,135
2016-11-25T12:45:21.040Z,130
2016-11-25T12:46:21.039Z,125
2016-11-25T12:47:21.025Z,125
2016-11-25T12:48:21.023Z,125
2016-11-25T12:49:21.001Z,120
2016-11-25T12:50:20.990Z,120
2016-11-25T12:51:20.986Z,115
2016-11-25T12:52:20.987Z,110
2016-11-25T12:53:20.968Z,115
2016-11-25T12:54:20.958Z,115
2016-11-25T12:55:20.980Z,115
2016-11-25T12:56:20.943Z,105
2016-11-25T12:57:20.927Z,110
2016-11-25T12:58:20.931Z,105
2016-11-25T12:59:20.908Z,100
2016-11-25T13:00:20.898Z,95
2016-11-25T13:01:20.892Z,95
2016-11-25T13:02:20.917Z,100
2016-11-25T13:03:20.867Z,95
2016-11-25T13:04:20.861Z,95
2016-11-25T13:05:20.841Z,95
2016-11-25T13:06:20.838Z,90
2016-11-25T13:07:20.828Z,95
2016-11-25T13:08:20.812Z,90
2016-11-25T13:09:20.804Z,95
2016-11-25T13:10:21.103Z,90
2016-11-25T13:11:21.082Z,85
2016-11-25T13:12:21.112Z,85
2016-11-25T13:13:20.768Z,90
2016-11-25T13:14:20.760Z,95
2016-11-25T13:15:20.740Z,90
2016-11-25T13:16:20.736Z,85
2016-11-25T13:17:20.727Z,85
2016-11-25T13:18:20.719Z,85
2016-11-25T13:19:20.710Z,85
2016-11-25T13:20:20.727Z,85
2016-11-25T13:21:20.678Z,85
2016-11-25T13:22:20.670Z,85
2016-11-25T13:23:20.663Z,85
2016-11-25T13:24:20.645Z,85
2016-11-25T13:25:20.648Z,85
2016-11-25T13:26:20.633Z,85
2016-11-25T13:27:20.624Z,80
2016-11-25T13:28:20.606Z,80
2016-11-25T13:29:20.614Z,80
2016-11-25T13:30:20.617Z,80
2016-11-25T13:31:20.893Z,80
2016-11-25T13:32:20.573Z,80
2016-11-25T13:33:20.556Z,80
2016-11-25T13:34:20.849Z,80
2016-11-25T13:35:20.540Z,75
2016-11-25T13:36:20.529Z,75
2016-11-25T13:37:20.507Z,75
2016-11-25T13:38:20.515Z,75
2016-11-25T13:39:20.793Z,70
2016-11-25T13:40:20.486Z,70
2016-11-25T13:41:20.470Z,70
2016-11-25T13:42:20.472Z,70
2016-11-25T13:43:20.455Z,70
2016-11-25T13:44:20.447Z,70
2016-11-25T13:45:20.438Z,70
2016-11-25T13:46:20.744Z,65
2016-11-25T13:47:20.433Z,65
2016-11-25T13:48:20.403Z,70
2016-11-25T13:49:20.704Z,65
2016-11-25T13:50:20.384Z,65
2016-11-25T13:51:20.376Z,65
2016-11-25T13:52:20.364Z,60
2016-11-25T13:53:20.351Z,60
2016-11-25T13:54:20.340Z,60
2016-11-25T13:55:20.329Z,55
2016-11-25T13:56:20.318Z,55
2016-11-25T13:57:20.307Z,55
2016-11-25T13:58:20.301Z,55
2016-11-25T13:59:20.287Z,55
2016-11-25T14:00:20.280Z,50
2016-11-25T14:01:20.282Z,50
2016-11-25T14:02:20.258Z,50
2016-11-25T14:03:20.244Z,45
2016-11-25T14:04:20.233Z,45
2016-11-25T14:05:20.259Z,45
2016-11-25T14:06:20.215Z,45
2016-11-25T14:07:20.201Z,45
2016-11-25T14:08:20.494Z,45
2016-11-25T14:09:20.186Z,45
2016-11-25T14:10:20.174Z,45
2016-11-25T14:11:20.168Z,45
2016-11-25T14:12:20.450Z,40
2016-11-25T14:13:20.146Z,40
2016-11-25T14:14:20.127Z,40
2016-11-25T14:15:20.132Z,40
2016-11-25T14:16:20.115Z,40
2016-11-25T14:17:20.094Z,40
2016-11-25T14:18:20.088Z,40
2016-11-25T14:19:20.074Z,35